X  Kiinni Metar Aviation säätiedot     EIDW Dublin Airport
Lämpötila
72°F Lämpötila
59°F Kastepiste
65% Kosteus



Tuuli
9 MPH
14 KM/T
4 M/S
8 KTS



60°
IPI
Nykyiset olosuhteet

Kirkas Kirkas
Paine 1013.92 (hPa) - 29.94 (inHg)
Näkyvyys 6.2 (maili) - 10 (km)
Lentokenttä
Lentokentän koodi EIDW

Sijainti: Dublin Airport
Etäisyys: 17 (mi)

Metar:
EIDW 131700Z 06008KT 020V140 CAVOK 22/15 Q1014 NOSIG

Aika: 13-08-2022 18:00 IST